createdAt,value
2018-05-13T00:00:52.669Z,11.97
2018-05-13T00:05:56.285Z,11.80
2018-05-13T00:10:59.414Z,12.97
2018-05-13T00:16:02.510Z,12.50
2018-05-13T00:21:06.407Z,12.50
2018-05-13T00:26:10.277Z,13.23
2018-05-13T00:31:14.554Z,12.70
2018-05-13T00:36:18.901Z,11.97
2018-05-13T00:41:22.754Z,11.83
2018-05-13T00:46:25.827Z,7.13
2018-05-13T00:51:29.674Z,7.97
2018-05-13T00:56:32.757Z,6.70
2018-05-13T01:01:37.193Z,7.07
2018-05-13T01:06:41.051Z,7.73
2018-05-13T01:11:44.141Z,8.73
2018-05-13T01:16:48.591Z,7.93
2018-05-13T01:21:51.766Z,8.03
2018-05-13T01:26:56.054Z,8.60
2018-05-13T01:31:59.238Z,8.60
2018-05-13T01:37:02.799Z,7.90
2018-05-13T01:42:05.910Z,8.37
2018-05-13T01:47:09.031Z,8.93
2018-05-13T01:52:13.469Z,8.90
2018-05-13T01:57:17.330Z,8.97
2018-05-13T02:02:21.765Z,9.10
2018-05-13T02:07:25.997Z,9.88
2018-05-13T02:12:29.897Z,9.82
2018-05-13T02:17:34.586Z,10.25
2018-05-13T02:22:37.769Z,10.10
2018-05-13T02:27:40.939Z,9.63
2018-05-13T02:32:44.129Z,10.43
2018-05-13T02:37:48.637Z,10.43
2018-05-13T02:42:52.499Z,11.27
2018-05-13T02:47:56.940Z,10.53
2018-05-13T02:53:00.204Z,10.70
2018-05-13T02:58:03.728Z,10.60
2018-05-13T03:03:07.572Z,10.60
2018-05-13T03:08:10.759Z,10.97
2018-05-13T03:13:15.017Z,10.67
2018-05-13T03:18:18.105Z,8.63
2018-05-13T03:23:21.957Z,7.80
2018-05-13T03:28:25.030Z,7.53
2018-05-13T03:33:28.906Z,6.90
2018-05-13T03:38:32.016Z,7.63
2018-05-13T03:43:35.090Z,7.33
2018-05-13T03:48:38.941Z,7.30
2018-05-13T03:53:43.510Z,7.30
2018-05-13T03:58:48.326Z,8.30
2018-05-13T04:03:52.111Z,7.33
2018-05-13T04:09:13.307Z,7.70
2018-05-13T04:14:35.272Z,7.77
2018-05-13T04:19:38.745Z,8.77
2018-05-13T04:24:42.718Z,9.40
2018-05-13T04:29:45.819Z,8.33
2018-05-13T04:34:48.992Z,9.53
2018-05-13T04:39:52.599Z,7.93
2018-05-13T04:44:56.087Z,8.10
2018-05-13T04:50:00.337Z,7.40
2018-05-13T04:55:03.454Z,6.30
2018-05-13T05:00:07.947Z,6.03
2018-05-13T05:05:12.259Z,6.03
2018-05-13T05:10:15.429Z,6.70
2018-05-13T05:15:19.287Z,5.63
2018-05-13T05:20:22.374Z,6.17
2018-05-13T05:25:25.455Z,5.97
2018-05-13T05:30:29.354Z,6.53
2018-05-13T05:35:32.837Z,6.70
2018-05-13T05:40:37.262Z,6.90
2018-05-13T05:45:40.343Z,6.60
2018-05-13T05:50:44.240Z,6.60
2018-05-13T05:55:48.114Z,7.47
2018-05-13T06:00:51.202Z,7.70
2018-05-13T06:05:55.043Z,7.60
2018-05-13T06:10:58.132Z,7.10
2018-05-13T06:16:01.599Z,7.00
2018-05-13T06:21:05.071Z,7.03
2018-05-13T06:26:08.918Z,7.10
2018-05-13T06:31:13.514Z,6.37
2018-05-13T06:36:17.360Z,7.30
2018-05-13T06:41:21.835Z,7.00
2018-05-13T06:46:25.683Z,7.03
2018-05-13T06:51:28.823Z,7.50
2018-05-13T06:56:31.855Z,7.30
2018-05-13T07:01:36.377Z,8.77
2018-05-13T07:06:40.887Z,8.17
2018-05-13T07:11:43.961Z,7.97
2018-05-13T07:16:47.046Z,9.40
2018-05-13T07:21:51.314Z,8.85
2018-05-13T07:26:55.167Z,9.07
2018-05-13T07:31:58.256Z,9.93
2018-05-13T07:37:02.698Z,9.60
2018-05-13T07:42:06.613Z,10.17
2018-05-13T07:47:11.042Z,10.67
2018-05-13T07:52:14.918Z,10.73
2018-05-13T07:57:19.349Z,11.80
2018-05-13T08:02:22.855Z,13.13
2018-05-13T08:07:25.954Z,13.67
2018-05-13T08:12:29.818Z,19.10
2018-05-13T08:17:34.811Z,18.67
2018-05-13T08:22:39.250Z,21.97
2018-05-13T08:27:43.686Z,23.43
2018-05-13T08:32:47.176Z,24.63
2018-05-13T08:37:51.037Z,28.40
2018-05-13T08:42:54.204Z,33.17
2018-05-13T08:47:58.074Z,34.00
2018-05-13T08:53:01.923Z,35.17
2018-05-13T08:58:05.027Z,36.38
2018-05-13T09:03:08.107Z,36.03
2018-05-13T09:08:11.985Z,37.03
2018-05-13T09:13:15.118Z,35.33
2018-05-13T09:18:19.554Z,34.33
2018-05-13T09:23:23.031Z,34.20
2018-05-13T09:28:26.124Z,36.70
2018-05-13T09:33:29.599Z,36.57
2018-05-13T09:38:33.079Z,36.97
2018-05-13T09:43:36.165Z,37.13
2018-05-13T09:48:39.241Z,37.63
2018-05-13T09:53:42.330Z,39.70
2018-05-13T09:58:49.102Z,39.53
2018-05-13T10:03:52.663Z,40.47
2018-05-13T10:08:55.754Z,38.77
2018-05-13T10:14:00.193Z,40.43
2018-05-13T10:19:04.053Z,41.83
2018-05-13T10:24:07.899Z,42.50
2018-05-13T10:29:10.987Z,44.37
2018-05-13T10:34:14.078Z,43.80
2018-05-13T10:39:17.569Z,45.53
2018-05-13T10:44:21.802Z,42.07
2018-05-13T10:49:25.428Z,42.73
2018-05-13T10:54:29.274Z,42.57
2018-05-13T10:59:32.762Z,43.77
2018-05-13T11:04:36.619Z,43.03
2018-05-13T11:09:40.117Z,44.43
2018-05-13T11:14:43.608Z,45.27
2018-05-13T11:19:47.458Z,44.97
2018-05-13T11:24:50.547Z,45.20
2018-05-13T11:29:55.012Z,44.20
2018-05-13T11:34:58.488Z,43.30
2018-05-13T11:40:01.571Z,42.57
2018-05-13T11:45:04.658Z,42.30
2018-05-13T11:50:08.531Z,41.33
2018-05-13T11:55:11.704Z,43.37
2018-05-13T12:00:14.877Z,43.37
2018-05-13T12:05:19.471Z,40.90
2018-05-13T12:10:23.536Z,44.20
2018-05-13T12:15:27.812Z,50.20
2018-05-13T12:20:31.664Z,48.57
2018-05-13T12:25:34.768Z,47.10
2018-05-13T12:30:37.850Z,48.67
2018-05-13T12:35:40.936Z,47.90
2018-05-13T12:40:44.033Z,45.00
2018-05-13T12:45:47.892Z,44.87
2018-05-13T12:50:52.166Z,41.63
2018-05-13T12:55:56.733Z,42.85
2018-05-13T13:01:00.210Z,45.50
2018-05-13T13:06:03.298Z,43.90
2018-05-13T13:11:06.379Z,42.40
2018-05-13T13:16:10.615Z,38.60
2018-05-13T13:21:14.475Z,40.73
2018-05-13T13:26:17.573Z,39.57
2018-05-13T13:31:21.310Z,39.13
2018-05-13T13:36:25.711Z,40.73
2018-05-13T13:41:28.801Z,42.93
2018-05-13T13:46:33.248Z,43.50
2018-05-13T13:51:37.086Z,41.50
2018-05-13T13:56:40.934Z,40.63
2018-05-13T14:01:44.034Z,39.83
2018-05-13T14:06:47.946Z,39.67
2018-05-13T14:11:51.860Z,37.60
2018-05-13T14:16:55.814Z,39.07
2018-05-13T14:21:59.705Z,39.37
2018-05-13T14:27:04.226Z,36.40
2018-05-13T14:32:07.614Z,37.80
2018-05-13T14:37:10.707Z,36.20
2018-05-13T14:42:15.314Z,36.03
2018-05-13T14:47:18.817Z,34.23
2018-05-13T14:52:22.344Z,34.90
2018-05-13T14:57:26.588Z,33.67
2018-05-13T15:02:31.027Z,31.43
2018-05-13T15:07:34.110Z,31.73
2018-05-13T15:12:37.590Z,29.83
2018-05-13T15:17:40.690Z,30.77
2018-05-13T15:22:43.774Z,32.50
2018-05-13T15:27:46.859Z,31.23
2018-05-13T15:32:50.336Z,33.47
2018-05-13T15:37:53.814Z,29.83
2018-05-13T15:42:57.436Z,29.20
2018-05-13T15:48:01.916Z,29.13
2018-05-13T15:53:05.013Z,30.30
2018-05-13T15:58:08.114Z,31.20
2018-05-13T16:03:11.211Z,30.67
2018-05-13T16:08:14.686Z,31.23
2018-05-13T16:13:18.915Z,31.93
2018-05-13T16:18:22.394Z,33.23
2018-05-13T16:23:25.498Z,34.30
2018-05-13T16:28:29.352Z,34.80
2018-05-13T16:33:32.455Z,37.93
2018-05-13T16:38:35.600Z,40.50
2018-05-13T16:43:38.624Z,41.20
2018-05-13T16:48:43.215Z,41.03
2018-05-13T16:53:46.706Z,41.67
2018-05-13T16:58:50.546Z,42.40
2018-05-13T17:03:53.638Z,44.37
2018-05-13T17:08:56.718Z,42.93
2018-05-13T17:13:59.807Z,43.97
2018-05-13T17:19:03.671Z,43.70
2018-05-13T17:24:07.530Z,45.10
2018-05-13T17:29:10.610Z,46.17
2018-05-13T17:34:14.534Z,45.10
2018-05-13T17:39:17.561Z,46.17
2018-05-13T17:44:22.000Z,47.23
2018-05-13T17:49:26.594Z,48.08
2018-05-13T17:54:31.184Z,46.67
2018-05-13T17:59:34.666Z,48.15
2018-05-13T18:04:39.110Z,46.23
2018-05-13T18:09:42.586Z,48.47
2018-05-13T18:14:46.822Z,52.90
2018-05-13T18:19:50.678Z,51.83
2018-05-13T18:24:53.913Z,54.23
2018-05-13T18:29:56.897Z,54.70
2018-05-13T18:35:01.123Z,55.60
2018-05-13T18:40:05.338Z,56.93
2018-05-13T18:45:08.839Z,56.10
2018-05-13T18:50:13.275Z,57.70
2018-05-13T18:55:16.750Z,58.97
2018-05-13T19:00:21.196Z,60.57
2018-05-13T19:05:25.621Z,62.58
2018-05-13T19:10:28.715Z,64.77
2018-05-13T19:15:32.953Z,67.63
2018-05-13T19:20:37.391Z,67.43
2018-05-13T19:25:40.471Z,64.27
2018-05-13T19:30:43.955Z,66.50
2018-05-13T19:35:47.047Z,65.00
2018-05-13T19:40:50.151Z,59.17
2018-05-13T19:45:53.226Z,56.40
2018-05-13T19:50:57.669Z,56.50
2018-05-13T19:56:02.271Z,57.07
2018-05-13T20:01:06.043Z,54.53
2018-05-13T20:06:10.658Z,55.07
2018-05-13T20:11:15.175Z,55.90
2018-05-13T20:16:18.823Z,59.93
2018-05-13T20:21:22.085Z,60.03
2018-05-13T20:26:25.250Z,60.47
2018-05-13T20:31:30.776Z,59.10
2018-05-13T20:36:33.966Z,59.20
2018-05-13T20:41:37.875Z,62.10
2018-05-13T20:46:41.082Z,68.17
2018-05-13T20:51:45.981Z,76.53
2018-05-13T20:56:49.237Z,78.37
2018-05-13T21:01:52.479Z,78.23
2018-05-13T21:06:56.146Z,81.53
2018-05-13T21:12:02.370Z,82.57
2018-05-13T21:17:05.560Z,82.63
2018-05-13T21:22:09.633Z,78.77
2018-05-13T21:27:12.783Z,68.53
2018-05-13T21:32:17.166Z,70.40
2018-05-13T21:37:20.316Z,67.57
2018-05-13T21:42:24.855Z,75.63
2018-05-13T21:47:28.420Z,70.17
2018-05-13T21:52:32.200Z,71.93
2018-05-13T21:57:37.926Z,72.13
2018-05-13T22:02:41.153Z,72.93
2018-05-13T22:07:44.726Z,71.10
2018-05-13T22:12:47.951Z,69.93
2018-05-13T22:17:51.984Z,65.27
2018-05-13T22:23:03.119Z,64.17
2018-05-13T22:28:07.156Z,68.87
2018-05-13T22:33:10.396Z,64.73
2018-05-13T22:38:13.628Z,67.90
2018-05-13T22:43:16.847Z,62.67
2018-05-13T22:48:21.931Z,65.93
2018-05-13T22:53:25.914Z,63.83
2018-05-13T22:58:29.275Z,62.17
2018-05-13T23:03:35.061Z,64.20
2018-05-13T23:08:39.005Z,62.73
2018-05-13T23:13:43.780Z,64.87
2018-05-13T23:18:47.850Z,68.67
2018-05-13T23:23:52.616Z,64.97
2018-05-13T23:28:56.607Z,72.23
2018-05-13T23:34:00.579Z,72.23
2018-05-13T23:39:03.902Z,77.00
2018-05-13T23:44:08.139Z,74.57
2018-05-13T23:49:12.213Z,72.33
2018-05-13T23:54:21.815Z,75.83
2018-05-13T23:59:25.220Z,77.00
